createdAt,value
2023-03-21T00:00:47.704Z,4887.2310
2023-03-21T00:01:49.160Z,4914.7690
2023-03-21T00:02:50.663Z,4922.2310
2023-03-21T00:03:52.096Z,4926.2310
2023-03-21T00:04:55.094Z,4939.6924
2023-03-21T00:05:54.943Z,4945.4614
2023-03-21T00:06:56.330Z,4937.9229
2023-03-21T00:07:57.793Z,4917.0771
2023-03-21T00:08:59.211Z,4910.1538
2023-03-21T00:10:12.385Z,4908.4614
2023-03-21T00:11:02.098Z,4879.9229
2023-03-21T00:12:03.521Z,4891.9229
2023-03-21T00:13:04.962Z,4876.0771
2023-03-21T00:14:06.403Z,4851.5386
2023-03-21T00:15:07.835Z,4859.3848
2023-03-21T00:16:20.469Z,4846.0771
2023-03-21T00:17:10.710Z,4841.0771
2023-03-21T00:18:12.160Z,4828.5386
2023-03-21T00:19:13.584Z,4799.2310
2023-03-21T00:20:15.092Z,4802.0771
2023-03-21T00:21:40.687Z,4811.6152
2023-03-21T00:22:17.905Z,4795.0000
2023-03-21T00:23:19.337Z,4787.4614
2023-03-21T00:24:20.788Z,4828.1538
2023-03-21T00:25:22.222Z,4890.3848
2023-03-21T00:26:23.673Z,4902.0000
2023-03-21T00:27:56.927Z,4906.8462
2023-03-21T00:28:26.549Z,4887.2310
2023-03-21T00:29:27.988Z,4898.6924
2023-03-21T00:30:29.432Z,4870.6152
2023-03-21T00:31:30.863Z,4882.4614
2023-03-21T00:32:35.593Z,4887.7690
2023-03-21T00:33:33.754Z,4868.6924
2023-03-21T00:34:43.205Z,4876.4614
2023-03-21T00:36:01.806Z,4869.0771
2023-03-21T00:36:38.256Z,4856.3848
2023-03-21T00:37:39.605Z,4859.5386
2023-03-21T00:38:41.041Z,4861.2310
2023-03-21T00:39:42.483Z,4830.5386
2023-03-21T00:40:49.169Z,4817.1538
2023-03-21T00:41:45.403Z,4814.2310
2023-03-21T00:42:46.796Z,4824.7690
2023-03-21T00:43:48.216Z,4791.9229
2023-03-21T00:44:49.671Z,4789.6924
2023-03-21T00:45:51.147Z,4791.6924
2023-03-21T00:47:06.193Z,4785.3848
2023-03-21T00:47:54.138Z,4763.0000
2023-03-21T00:48:55.496Z,4742.9229
2023-03-21T00:49:56.840Z,4750.3848
2023-03-21T00:50:58.314Z,4738.3076
2023-03-21T00:52:14.790Z,4748.7690
2023-03-21T00:53:01.164Z,4726.0000
2023-03-21T00:54:02.594Z,4713.3848
2023-03-21T00:55:04.047Z,4697.9229
2023-03-21T00:56:05.485Z,4681.9229
2023-03-21T00:57:06.919Z,4674.2310
2023-03-21T00:58:08.393Z,4672.2310
2023-03-21T00:59:09.805Z,4667.6924
2023-03-21T01:00:11.229Z,4654.2310
2023-03-21T01:01:12.704Z,4649.8462
2023-03-21T01:02:14.159Z,4635.9229
2023-03-21T01:03:24.506Z,4619.0000
2023-03-21T01:04:17.166Z,4628.1538
2023-03-21T01:05:18.442Z,4595.6152
2023-03-21T01:06:19.866Z,4577.6924
2023-03-21T01:07:21.318Z,4595.0000
2023-03-21T01:08:29.411Z,4609.4614
2023-03-21T01:09:24.214Z,4750.6924
2023-03-21T01:10:25.632Z,4833.0000
2023-03-21T01:11:27.084Z,4833.8462
2023-03-21T01:12:28.525Z,4774.6924
2023-03-21T01:13:29.956Z,4757.2310
2023-03-21T01:14:31.401Z,4728.9229
2023-03-21T01:15:32.834Z,4795.3076
2023-03-21T01:16:34.379Z,4788.0771
2023-03-21T01:17:35.731Z,4768.5386
2023-03-21T01:18:37.142Z,4757.5386
2023-03-21T01:19:51.301Z,4745.0000
2023-03-21T01:20:40.031Z,4768.6152
2023-03-21T01:21:41.491Z,4743.3076
2023-03-21T01:22:42.897Z,4724.2310
2023-03-21T01:23:44.349Z,4708.6152
2023-03-21T01:24:54.115Z,4697.4614
2023-03-21T01:25:47.223Z,4708.5386
2023-03-21T01:26:48.666Z,4694.8462
2023-03-21T01:27:50.108Z,4673.7690
2023-03-21T01:28:51.534Z,4660.7690
2023-03-21T01:29:52.991Z,4655.9229
2023-03-21T01:30:54.415Z,4637.1538
2023-03-21T01:31:55.953Z,4645.3848
2023-03-21T01:32:57.292Z,4649.0000
2023-03-21T01:33:58.734Z,4638.2310
2023-03-21T01:35:00.173Z,4616.1538
2023-03-21T01:36:12.160Z,4620.8462
2023-03-21T01:37:03.081Z,4609.6152
2023-03-21T01:38:04.496Z,4590.6152
2023-03-21T01:39:05.926Z,4572.2310
2023-03-21T01:40:07.370Z,4563.2310
2023-03-21T01:41:18.892Z,4562.0000
2023-03-21T01:42:10.249Z,4539.0000
2023-03-21T01:43:11.681Z,4528.4614
2023-03-21T01:44:13.123Z,4541.9229
2023-03-21T01:45:14.565Z,4519.7690
2023-03-21T01:46:16.040Z,4516.0771
2023-03-21T01:47:17.461Z,4499.7690
2023-03-21T01:48:18.902Z,4581.0771
2023-03-21T01:49:20.305Z,4610.6924
2023-03-21T01:50:21.749Z,4603.2310
2023-03-21T01:51:23.185Z,4572.7690
2023-03-21T01:52:37.195Z,4527.1538
2023-03-21T01:53:26.067Z,4556.5386
2023-03-21T01:54:27.505Z,4545.5386
2023-03-21T01:55:28.940Z,4551.2310
2023-03-21T01:56:30.397Z,4521.3848
2023-03-21T01:57:40.962Z,4525.3848
2023-03-21T01:58:33.330Z,4492.3848
2023-03-21T01:59:34.702Z,4498.6924
2023-03-21T02:00:36.138Z,4504.4614
2023-03-21T02:01:37.576Z,4505.6924
2023-03-21T02:02:39.019Z,4472.3076
2023-03-21T02:03:40.500Z,4463.0000
2023-03-21T02:04:41.900Z,4448.1538
2023-03-21T02:05:43.326Z,4444.0771
2023-03-21T02:06:44.782Z,4451.1538
2023-03-21T02:07:46.200Z,4438.3076
2023-03-21T02:08:47.649Z,4431.2310
2023-03-21T02:09:49.086Z,4424.9229
2023-03-21T02:10:50.696Z,4409.7690
2023-03-21T02:11:51.999Z,4401.0771
2023-03-21T02:12:53.407Z,4407.4614
2023-03-21T02:14:05.670Z,4389.6924
2023-03-21T02:14:56.283Z,4391.7690
2023-03-21T02:15:57.716Z,4373.6924
2023-03-21T02:16:59.219Z,4365.9229
2023-03-21T02:18:00.582Z,4361.4614
2023-03-21T02:19:02.038Z,4355.8462
2023-03-21T02:20:03.468Z,4358.0000
2023-03-21T02:21:04.899Z,4334.1538
2023-03-21T02:22:06.325Z,4326.3848
2023-03-21T02:23:07.773Z,4329.3848
2023-03-21T02:24:09.210Z,4316.7690
2023-03-21T02:25:21.269Z,4306.3076
2023-03-21T02:26:12.089Z,4302.8462
2023-03-21T02:27:13.528Z,4290.8462
2023-03-21T02:28:14.956Z,4284.0000
2023-03-21T02:29:17.736Z,4278.1538
2023-03-21T02:30:28.247Z,4254.6152
2023-03-21T02:31:19.317Z,4241.4614
2023-03-21T02:32:35.018Z,4242.3848
2023-03-21T02:33:22.150Z,4212.4614
2023-03-21T02:34:23.588Z,4218.3076
2023-03-21T02:35:25.025Z,4209.1538
2023-03-21T02:36:26.543Z,4211.6924
2023-03-21T02:37:36.753Z,4202.6152
2023-03-21T02:38:29.380Z,4205.6924
2023-03-21T02:39:30.792Z,4199.5386
2023-03-21T02:40:32.247Z,4190.1538
2023-03-21T02:41:40.133Z,4191.7690
2023-03-21T02:42:35.138Z,4181.6152
2023-03-21T02:43:36.543Z,4173.6924
2023-03-21T02:44:37.994Z,4136.1538
2023-03-21T02:45:39.424Z,4141.0000
2023-03-21T02:46:45.653Z,4161.1538
2023-03-21T02:47:42.333Z,4138.6924
2023-03-21T02:48:50.672Z,4153.6924
2023-03-21T02:49:45.193Z,4120.8462
2023-03-21T02:50:46.622Z,4115.8462
2023-03-21T02:51:48.105Z,4136.2310
2023-03-21T02:52:49.490Z,4093.8462
2023-03-21T02:54:04.574Z,4091.3076
2023-03-21T02:54:52.368Z,4101.0000
2023-03-21T02:55:53.807Z,4080.5386
2023-03-21T02:56:55.380Z,4045.0000
2023-03-21T02:57:56.870Z,4053.4614
2023-03-21T02:58:58.174Z,4069.0769
2023-03-21T03:00:07.524Z,4035.3845
2023-03-21T03:01:01.020Z,4014.7693
2023-03-21T03:02:02.459Z,4024.0000
2023-03-21T03:03:09.869Z,4030.7693
2023-03-21T03:04:05.345Z,4025.6155
2023-03-21T03:05:18.005Z,4025.4614
2023-03-21T03:06:08.225Z,4002.6924
2023-03-21T03:07:09.624Z,3988.0769
2023-03-21T03:08:11.105Z,3984.8462
2023-03-21T03:09:12.511Z,3977.7693
2023-03-21T03:10:13.943Z,3957.8462
2023-03-21T03:11:15.373Z,3952.5386
2023-03-21T03:12:16.827Z,3949.8462
2023-03-21T03:13:18.254Z,3952.8462
2023-03-21T03:15:21.128Z,3934.6924
2023-03-21T03:16:22.570Z,3913.1538
2023-03-21T03:17:24.013Z,3925.3076
2023-03-21T03:18:25.454Z,3910.6924
2023-03-21T03:19:26.885Z,3890.4614
2023-03-21T03:20:28.323Z,3890.5386
2023-03-21T03:21:29.755Z,3882.6924
2023-03-21T03:22:31.197Z,3884.0769
2023-03-21T03:23:32.631Z,3884.7693
2023-03-21T03:24:34.093Z,3881.0000
2023-03-21T03:25:42.605Z,3868.6155
2023-03-21T03:26:36.961Z,3870.4614
2023-03-21T03:27:38.380Z,3835.6155
2023-03-21T03:28:39.840Z,3839.8462
2023-03-21T03:29:41.263Z,3850.9231
2023-03-21T03:30:54.070Z,3814.5386
2023-03-21T03:31:44.206Z,3818.9231
2023-03-21T03:32:45.577Z,3838.5386
2023-03-21T03:33:47.009Z,3853.6155
2023-03-21T03:34:48.451Z,3865.4614
2023-03-21T03:36:02.568Z,3846.0000
2023-03-21T03:36:51.372Z,3849.0000
2023-03-21T03:37:52.746Z,3833.3845
2023-03-21T03:38:54.185Z,3827.8462
2023-03-21T03:39:55.617Z,3827.6924
2023-03-21T03:40:57.061Z,3825.6924
2023-03-21T03:42:27.199Z,3809.4614
2023-03-21T03:42:59.929Z,3803.0000
2023-03-21T03:44:01.363Z,3788.4614
2023-03-21T03:45:02.810Z,3786.3845
2023-03-21T03:46:04.234Z,3782.3076
2023-03-21T03:47:05.691Z,3755.5386
2023-03-21T03:48:07.155Z,3754.1538
2023-03-21T03:49:08.566Z,3750.3845
2023-03-21T03:50:09.983Z,3760.1538
2023-03-21T03:51:11.425Z,3752.5386
2023-03-21T03:52:12.867Z,3739.9231
2023-03-21T03:53:18.358Z,3713.7693
2023-03-21T03:54:15.726Z,3726.4614
2023-03-21T03:55:17.166Z,3724.0000
2023-03-21T03:56:18.597Z,3700.6155
2023-03-21T03:57:20.046Z,3696.4614
2023-03-21T03:58:24.252Z,3698.2307
2023-03-21T03:59:22.902Z,3695.6924
2023-03-21T04:00:24.329Z,3681.0000
2023-03-21T04:01:25.768Z,3674.2307
2023-03-21T04:02:27.289Z,3679.4614
2023-03-21T04:03:32.416Z,3683.3076
2023-03-21T04:04:30.147Z,3669.6924
2023-03-21T04:05:31.513Z,3669.5386
2023-03-21T04:06:32.944Z,3652.0000
2023-03-21T04:07:34.385Z,3639.1538
2023-03-21T04:08:35.854Z,3632.5386
2023-03-21T04:09:44.071Z,3618.9231
2023-03-21T04:10:39.099Z,3623.0769
2023-03-21T04:11:40.122Z,3603.8462
2023-03-21T04:12:41.572Z,3624.2307
2023-03-21T04:13:43.047Z,3604.6155
2023-03-21T04:14:46.976Z,3567.6155
2023-03-21T04:15:46.072Z,3551.3076
2023-03-21T04:16:47.307Z,3551.6155
2023-03-21T04:17:48.719Z,3532.5386
2023-03-21T04:18:50.170Z,3528.1538
2023-03-21T04:19:55.476Z,3508.1538
2023-03-21T04:20:53.031Z,3491.1538
2023-03-21T04:21:54.455Z,3486.0769
2023-03-21T04:22:55.893Z,3479.5386
2023-03-21T04:23:57.323Z,3465.3845
2023-03-21T04:25:00.517Z,3444.8462
2023-03-21T04:26:00.189Z,3446.6924
2023-03-21T04:27:01.642Z,3421.1538
2023-03-21T04:28:03.045Z,3401.0769
2023-03-21T04:29:04.484Z,3400.6155
2023-03-21T04:30:05.911Z,3393.8462
2023-03-21T04:31:16.098Z,3406.3076
2023-03-21T04:32:08.820Z,3396.3076
2023-03-21T04:33:10.218Z,3394.1538
2023-03-21T04:34:11.641Z,3380.2307
2023-03-21T04:35:13.088Z,3371.1538
2023-03-21T04:36:14.546Z,3362.2307
2023-03-21T04:37:15.957Z,3364.1538
2023-03-21T04:38:17.477Z,3334.0000
2023-03-21T04:39:18.918Z,3337.7693
2023-03-21T04:40:20.367Z,3355.7693
2023-03-21T04:41:21.801Z,3349.1538
2023-03-21T04:42:23.210Z,3332.4614
2023-03-21T04:43:24.656Z,3348.0769
2023-03-21T04:44:26.082Z,3327.6155
2023-03-21T04:45:27.527Z,3317.7693
2023-03-21T04:46:28.968Z,3342.1538
2023-03-21T04:47:30.396Z,3314.4614
2023-03-21T04:48:31.831Z,3317.0769
2023-03-21T04:49:33.287Z,3286.1538
2023-03-21T04:50:34.921Z,3288.2307
2023-03-21T04:51:36.140Z,3293.4614
2023-03-21T04:52:37.588Z,3264.6924
2023-03-21T04:53:39.019Z,3274.6155
2023-03-21T04:54:40.450Z,3266.8462
2023-03-21T04:55:41.885Z,3276.2307
2023-03-21T04:56:43.329Z,3277.1538
2023-03-21T04:57:44.772Z,3270.3076
2023-03-21T04:58:46.191Z,3257.7693
2023-03-21T04:59:47.640Z,3260.0000
2023-03-21T05:00:49.090Z,3235.9231
2023-03-21T05:01:50.498Z,3236.1538
2023-03-21T05:02:51.929Z,3203.2307
2023-03-21T05:03:53.382Z,3212.8462
2023-03-21T05:04:54.794Z,3211.0769
2023-03-21T05:05:56.241Z,3194.7693
2023-03-21T05:06:57.664Z,3182.9231
2023-03-21T05:07:59.106Z,3190.6924
2023-03-21T05:09:00.555Z,3180.0769
2023-03-21T05:10:02.776Z,3144.0000
2023-03-21T05:11:03.408Z,3097.0000
2023-03-21T05:12:04.864Z,3049.8462
2023-03-21T05:13:06.299Z,3021.3076
2023-03-21T05:14:07.725Z,2996.3076
2023-03-21T05:15:09.194Z,3012.6155
2023-03-21T05:16:10.604Z,3007.3076
2023-03-21T05:17:12.044Z,2994.6155
2023-03-21T05:18:13.463Z,2975.1538
2023-03-21T05:19:14.903Z,2972.6155
2023-03-21T05:20:16.380Z,2960.2307
2023-03-21T05:21:17.768Z,2931.6924
2023-03-21T05:22:19.213Z,2925.0769
2023-03-21T05:23:20.636Z,2886.5386
2023-03-21T05:24:22.079Z,2901.0769
2023-03-21T05:25:23.513Z,2867.9231
2023-03-21T05:26:24.956Z,2872.7693
2023-03-21T05:27:26.390Z,2845.6924
2023-03-21T05:28:27.825Z,2844.1538
2023-03-21T05:29:29.260Z,2833.0769
2023-03-21T05:30:30.705Z,2821.6155
2023-03-21T05:31:32.143Z,2799.2307
2023-03-21T05:32:33.575Z,2810.4614
2023-03-21T05:33:35.000Z,2809.3076
2023-03-21T05:34:36.442Z,2784.4614
2023-03-21T05:35:38.141Z,2790.7693
2023-03-21T05:36:39.349Z,2746.4614
2023-03-21T05:37:40.753Z,2734.3076
2023-03-21T05:38:42.192Z,2732.5386
2023-03-21T05:39:43.623Z,2716.7693
2023-03-21T05:40:45.061Z,2716.3076
2023-03-21T05:41:46.521Z,2710.6924
2023-03-21T05:42:47.927Z,2698.3845
2023-03-21T05:43:49.370Z,2662.3076
2023-03-21T05:44:50.794Z,2635.6924
2023-03-21T05:45:52.267Z,2581.6155
2023-03-21T05:46:53.683Z,1815.3846
2023-03-21T05:47:55.129Z,400.0000
2023-03-21T05:48:56.541Z,400.0000
2023-03-21T05:49:57.971Z,400.0000
2023-03-21T05:50:59.436Z,400.0000
2023-03-21T05:52:00.860Z,400.0000
2023-03-21T05:53:02.314Z,400.0000
2023-03-21T05:54:03.757Z,400.0000
2023-03-21T05:55:05.174Z,400.0000
2023-03-21T05:56:06.614Z,400.0000
2023-03-21T05:57:08.062Z,400.0000
2023-03-21T05:58:09.478Z,400.0000
2023-03-21T05:59:10.919Z,400.0000
2023-03-21T06:00:12.369Z,400.0000
2023-03-21T06:01:13.791Z,400.0000
2023-03-21T06:02:15.311Z,400.0000
2023-03-21T06:03:16.663Z,400.0000
2023-03-21T06:04:18.140Z,400.0000
2023-03-21T06:05:19.531Z,400.0000
2023-03-21T06:06:20.972Z,400.0000
2023-03-21T06:07:22.406Z,400.0000
2023-03-21T06:08:23.833Z,400.0000
2023-03-21T06:09:25.274Z,400.0000
2023-03-21T06:10:26.702Z,400.0000
2023-03-21T06:11:28.166Z,400.0000
2023-03-21T06:12:29.580Z,400.0000
2023-03-21T06:13:31.018Z,400.0000
2023-03-21T06:14:32.459Z,400.0000
2023-03-21T06:15:33.880Z,400.0000
2023-03-21T06:16:35.323Z,400.0000
2023-03-21T06:17:36.754Z,400.0000
2023-03-21T06:18:38.196Z,400.0000
2023-03-21T06:19:39.630Z,400.0000
2023-03-21T06:20:41.056Z,400.0000
2023-03-21T06:21:42.520Z,400.0000
2023-03-21T06:22:43.934Z,400.0000
2023-03-21T06:23:45.376Z,400.0000
2023-03-21T06:24:46.802Z,400.0000
2023-03-21T06:25:48.253Z,400.0000
2023-03-21T06:26:49.683Z,400.0000
2023-03-21T06:27:51.119Z,400.0000
2023-03-21T06:28:52.540Z,400.0000
2023-03-21T06:29:53.987Z,400.0000
2023-03-21T06:30:55.501Z,400.0000
2023-03-21T06:31:56.867Z,400.0000
2023-03-21T06:32:58.327Z,400.0000
2023-03-21T06:33:59.733Z,400.0000
2023-03-21T06:35:01.168Z,400.0000
2023-03-21T06:36:02.621Z,400.0000
2023-03-21T06:37:04.051Z,400.0000
2023-03-21T06:38:05.516Z,400.0000
2023-03-21T06:39:06.917Z,400.0000
2023-03-21T06:40:08.364Z,400.0000
2023-03-21T06:41:09.780Z,400.0000
2023-03-21T06:42:11.233Z,400.0000
2023-03-21T06:43:12.669Z,400.0000
2023-03-21T06:44:14.144Z,400.0000
2023-03-21T06:45:15.542Z,400.0000
2023-03-21T06:46:17.005Z,400.0000
2023-03-21T06:47:18.426Z,400.0000
2023-03-21T06:48:19.954Z,400.0000
2023-03-21T06:49:21.301Z,400.0000
2023-03-21T06:50:22.732Z,400.0000
2023-03-21T06:51:24.169Z,400.0000
2023-03-21T06:52:25.607Z,400.0000
2023-03-21T06:53:27.038Z,400.0000
2023-03-21T06:54:28.475Z,400.0000
2023-03-21T06:55:29.896Z,400.0000
2023-03-21T06:56:31.337Z,400.0000
2023-03-21T06:57:32.777Z,400.0000
2023-03-21T06:58:34.224Z,400.0000
2023-03-21T06:59:35.641Z,400.0000
2023-03-21T07:00:37.121Z,400.0000
2023-03-21T07:01:38.538Z,400.0000
2023-03-21T07:02:40.040Z,400.0000
2023-03-21T07:03:41.397Z,400.0000
2023-03-21T07:04:42.836Z,400.0000
2023-03-21T07:05:44.262Z,400.0000
2023-03-21T07:06:45.729Z,400.0000
2023-03-21T07:07:47.143Z,400.0000
2023-03-21T07:08:48.585Z,400.0000
2023-03-21T07:09:50.018Z,400.0000
2023-03-21T07:10:51.451Z,400.0000
2023-03-21T07:11:52.903Z,400.0000
2023-03-21T07:12:54.339Z,400.0000
2023-03-21T07:13:55.780Z,400.0000
2023-03-21T07:14:57.210Z,400.0000
2023-03-21T07:15:58.660Z,400.0000
2023-03-21T07:17:00.185Z,400.0000
2023-03-21T07:18:01.527Z,400.0000
2023-03-21T07:19:02.974Z,400.0000
2023-03-21T07:20:04.413Z,400.0000
2023-03-21T07:21:05.856Z,400.0000
2023-03-21T07:22:07.322Z,400.0000
2023-03-21T07:23:08.741Z,400.0000
2023-03-21T07:24:10.170Z,400.0000
2023-03-21T07:25:11.687Z,400.0000
2023-03-21T07:26:13.069Z,400.0000
2023-03-21T07:27:14.508Z,400.0000
2023-03-21T07:28:15.923Z,400.0000
2023-03-21T07:29:17.387Z,400.0000
2023-03-21T07:30:18.810Z,400.0000
2023-03-21T07:31:20.277Z,400.0000
2023-03-21T07:32:21.683Z,400.0000
2023-03-21T07:33:23.157Z,400.0000
2023-03-21T07:34:24.554Z,400.0000
2023-03-21T07:35:26.021Z,400.0000
2023-03-21T07:36:27.436Z,400.0000
2023-03-21T07:37:28.906Z,400.0000
2023-03-21T07:38:30.318Z,400.0000
2023-03-21T07:39:31.761Z,400.0000
2023-03-21T07:40:33.215Z,400.0000
2023-03-21T07:41:34.641Z,400.0000
2023-03-21T07:42:36.090Z,400.0000
2023-03-21T07:43:39.211Z,400.0000
2023-03-21T17:02:34.837Z,738.1429
2023-03-21T17:03:36.294Z,879.6154
2023-03-21T17:04:37.754Z,786.6923
2023-03-21T17:05:39.145Z,772.5385
2023-03-21T17:06:40.575Z,798.0000
2023-03-21T17:07:42.005Z,822.3077
2023-03-21T17:08:43.439Z,854.5385
2023-03-21T17:09:44.880Z,875.3077
2023-03-21T17:10:46.314Z,889.4615
2023-03-21T17:11:47.739Z,896.9231
2023-03-21T17:12:49.186Z,923.9231
2023-03-21T17:13:50.601Z,919.0000
2023-03-21T17:14:52.038Z,930.1539
2023-03-21T17:15:53.524Z,946.8461
2023-03-21T17:16:54.983Z,965.8461
2023-03-21T17:17:56.341Z,966.7692
2023-03-21T17:18:57.785Z,994.2308
2023-03-21T17:19:59.244Z,1022.4615
2023-03-21T17:21:00.667Z,1036.1538
2023-03-21T17:22:02.082Z,1038.7693
2023-03-21T17:23:03.525Z,1047.3846
2023-03-21T17:24:04.964Z,1020.9231
2023-03-21T17:25:06.388Z,999.2308
2023-03-21T17:26:07.821Z,989.5385
2023-03-21T17:27:09.262Z,984.7692
2023-03-21T17:28:10.701Z,961.9231
2023-03-21T17:29:12.126Z,961.4615
2023-03-21T17:30:13.626Z,973.2308
2023-03-21T17:31:15.058Z,975.2308
2023-03-21T17:32:16.431Z,978.8461
2023-03-21T17:33:17.880Z,964.6154
2023-03-21T17:34:19.288Z,968.7692
2023-03-21T17:35:20.751Z,949.4615
2023-03-21T17:36:22.142Z,950.0000
2023-03-21T17:37:23.594Z,963.6923
2023-03-21T17:38:25.009Z,955.4615
2023-03-21T17:39:26.442Z,957.1539
2023-03-21T17:40:27.873Z,959.0000
2023-03-21T17:41:29.309Z,959.0769
2023-03-21T17:42:30.737Z,963.6154
2023-03-21T17:43:32.178Z,965.2308
2023-03-21T17:44:33.590Z,956.2308
2023-03-21T17:45:35.027Z,957.8461
2023-03-21T17:46:36.513Z,961.9231
2023-03-21T17:47:37.913Z,958.3846
2023-03-21T17:48:39.333Z,970.7692
2023-03-21T17:49:40.759Z,976.1539
2023-03-21T17:50:42.185Z,972.2308
2023-03-21T17:51:43.632Z,983.6154
2023-03-21T17:52:45.058Z,979.7692
2023-03-21T17:53:46.487Z,986.3846
2023-03-21T17:54:47.951Z,986.9231
2023-03-21T17:55:49.377Z,991.8461
2023-03-21T17:56:50.801Z,995.8461
2023-03-21T17:57:52.239Z,995.3077
2023-03-21T17:58:53.665Z,996.4615
2023-03-21T17:59:55.108Z,1000.1539
2023-03-21T18:00:56.546Z,1001.9231
2023-03-21T18:01:58.023Z,1008.1539
2023-03-21T18:02:59.490Z,1007.9231
2023-03-21T18:04:00.889Z,1015.8461
2023-03-21T18:05:02.396Z,1017.6154
2023-03-21T18:06:03.736Z,1019.6154
2023-03-21T18:07:06.919Z,1007.7692
2023-03-21T18:08:11.037Z,1008.9231
2023-03-21T18:09:08.024Z,1002.0000
2023-03-21T18:10:09.467Z,1004.9231
2023-03-21T18:11:10.899Z,1010.0769
2023-03-21T18:12:12.329Z,1012.5385
2023-03-21T18:13:13.763Z,1016.1539
2023-03-21T18:14:18.081Z,1017.8461
2023-03-21T18:15:18.917Z,1013.1539
2023-03-21T18:16:18.112Z,1014.0000
2023-03-21T18:17:19.478Z,1020.9231
2023-03-21T18:18:20.918Z,1027.7693
2023-03-21T18:19:22.344Z,1030.4615
2023-03-21T18:20:24.258Z,1021.6923
2023-03-21T18:21:26.296Z,1035.3846
2023-03-21T18:22:26.648Z,1034.0769
2023-03-21T18:23:28.079Z,1037.9231
2023-03-21T18:24:29.519Z,1041.4615
2023-03-21T18:25:30.934Z,1037.3846
2023-03-21T18:26:32.429Z,1049.8462
2023-03-21T18:27:35.301Z,1044.3077
2023-03-21T18:28:35.228Z,1050.5385
2023-03-21T18:31:00.286Z,1047.5385
2023-03-21T18:31:39.529Z,1048.6154
2023-03-21T18:32:41.015Z,1059.5385
2023-03-21T18:33:42.389Z,1062.6154
2023-03-21T18:34:43.831Z,1050.0000
2023-03-21T18:35:46.374Z,1053.8462
2023-03-21T18:36:49.141Z,1059.6154
2023-03-21T18:37:48.134Z,1061.9231
2023-03-21T18:38:49.538Z,1066.1538
2023-03-21T18:39:50.976Z,1066.8462
2023-03-21T18:40:52.395Z,1070.6923
2023-03-21T18:41:57.762Z,1055.8462
2023-03-21T18:44:05.438Z,1033.1538
2023-03-21T18:44:58.189Z,1028.1538
2023-03-21T18:45:59.571Z,1035.6923
2023-03-21T18:47:01.018Z,1045.0000
2023-03-21T18:48:02.463Z,1042.2307
2023-03-21T18:49:33.941Z,1038.0769
2023-03-21T18:50:14.125Z,1040.3077
2023-03-21T18:51:06.718Z,1048.7693
2023-03-21T18:52:08.175Z,1051.0769
2023-03-21T18:53:09.572Z,1049.0769
2023-03-21T18:54:11.013Z,1049.3077
2023-03-21T18:55:12.441Z,1052.8462
2023-03-21T18:56:40.797Z,1053.4615
2023-03-21T18:58:16.744Z,1055.1538
2023-03-21T18:59:18.171Z,1058.9231
2023-03-21T19:00:19.646Z,1058.7693
2023-03-21T19:01:21.165Z,1061.1538
2023-03-21T19:02:22.633Z,1063.3077
2023-03-21T19:03:35.893Z,1063.0000
2023-03-21T19:04:30.045Z,1069.6923
2023-03-21T19:05:26.836Z,1071.3077
2023-03-21T19:06:28.237Z,1071.9231
2023-03-21T19:07:29.644Z,1075.5385
2023-03-21T19:08:31.120Z,1073.3846
2023-03-21T19:09:32.499Z,1083.3846
2023-03-21T19:10:33.944Z,1083.9231
2023-03-21T19:11:35.395Z,1082.0000
2023-03-21T19:12:36.822Z,1082.2307
2023-03-21T19:13:38.224Z,1082.9231
2023-03-21T19:14:39.662Z,1089.0769
2023-03-21T19:15:41.525Z,1088.2307
2023-03-21T19:17:08.476Z,1097.6154
2023-03-21T19:18:54.519Z,1102.5385
2023-03-21T19:19:46.908Z,1100.5385
2023-03-21T19:20:48.264Z,1082.8462
2023-03-21T19:21:49.692Z,1081.0000
2023-03-21T19:22:51.141Z,1080.0000
2023-03-21T19:24:25.259Z,1088.3846
2023-03-21T19:24:54.003Z,1094.4615
2023-03-21T19:25:55.420Z,1095.5385
2023-03-21T19:26:56.858Z,1095.9231
2023-03-21T19:27:58.300Z,1093.3846
2023-03-21T19:28:59.729Z,1096.5385
2023-03-21T19:30:13.466Z,1096.9231
2023-03-21T19:31:02.590Z,1095.3846
2023-03-21T19:32:04.088Z,1101.3846
2023-03-21T19:33:05.472Z,1105.3846
2023-03-21T19:34:06.889Z,1101.7693
2023-03-21T19:35:08.366Z,1104.5385
2023-03-21T19:36:20.930Z,1110.0769
2023-03-21T19:37:11.240Z,1119.4615
2023-03-21T19:38:12.633Z,1130.3077
2023-03-21T19:39:14.072Z,1131.3846
2023-03-21T19:40:15.511Z,1133.0769
2023-03-21T19:41:16.959Z,1130.8462
2023-03-21T19:42:18.474Z,1135.3077
2023-03-21T19:43:32.270Z,1143.0000
2023-03-21T19:44:21.249Z,1142.3077
2023-03-21T19:45:22.679Z,1155.0769
2023-03-21T19:46:24.113Z,1151.6154
2023-03-21T19:47:25.562Z,1158.3077
2023-03-21T19:48:27.179Z,1161.1538
2023-03-21T19:49:48.535Z,1172.1538
2023-03-21T19:51:24.467Z,1180.6154
2023-03-21T19:51:31.582Z,1178.8462
2023-03-21T19:52:32.731Z,1179.1538
2023-03-21T19:53:34.163Z,1186.6154
2023-03-21T19:54:35.591Z,1188.0769
2023-03-21T19:55:37.030Z,1198.6154
2023-03-21T19:56:38.451Z,1218.8462
2023-03-21T19:57:39.939Z,1361.2307
2023-03-21T19:58:41.330Z,1514.1538
2023-03-21T19:59:42.775Z,1565.4615
2023-03-21T20:00:44.205Z,1555.3077
2023-03-21T20:01:45.998Z,1522.4615
2023-03-21T20:02:47.129Z,1491.1538
2023-03-21T20:03:48.573Z,1524.3077
2023-03-21T20:04:49.950Z,1817.6923
2023-03-21T20:05:51.461Z,2239.3845
2023-03-21T20:06:52.817Z,2432.1538
2023-03-21T20:07:54.265Z,2374.5386
2023-03-21T20:09:41.213Z,2258.4614
2023-03-21T20:09:57.576Z,2261.0769
2023-03-21T20:10:58.562Z,2339.7693
2023-03-21T20:12:00.012Z,2319.3076
2023-03-21T20:13:01.450Z,3005.9231
2023-03-21T20:14:02.898Z,3052.3076
2023-03-21T20:15:16.661Z,2378.3845
2023-03-21T20:16:05.791Z,1859.3077
2023-03-21T20:17:07.239Z,1568.5385
2023-03-21T20:18:08.632Z,1530.7693
2023-03-21T20:19:10.073Z,1522.3846
2023-03-21T20:20:11.508Z,1482.3077
2023-03-21T20:21:17.667Z,1429.7693
2023-03-21T20:22:24.515Z,1390.3077
2023-03-21T20:23:16.093Z,1375.2307
2023-03-21T20:24:17.240Z,1362.0000
2023-03-21T20:25:18.665Z,1341.3077
2023-03-21T20:26:20.098Z,1329.0000
2023-03-21T20:27:21.524Z,1312.2307
2023-03-21T20:28:27.128Z,1306.3846
2023-03-21T20:30:25.841Z,1362.4615
2023-03-21T20:31:27.391Z,1368.4615
2023-03-21T20:32:28.713Z,1380.4615
2023-03-21T20:33:30.146Z,1369.3846
2023-03-21T20:34:31.598Z,1357.8462
2023-03-21T20:36:23.681Z,1344.0769
2023-03-21T20:36:40.442Z,1338.6923
2023-03-21T20:37:35.954Z,1335.9231
2023-03-21T20:38:37.333Z,1334.0769
2023-03-21T20:39:38.753Z,1326.0000
2023-03-21T20:40:40.537Z,1326.3077
2023-03-21T20:41:41.629Z,1325.5385
2023-03-21T20:42:43.078Z,1315.7693
2023-03-21T20:44:57.940Z,1294.1538
2023-03-21T20:45:47.377Z,1293.4615
2023-03-21T20:46:48.902Z,1291.0000
2023-03-21T20:47:50.278Z,1290.5385
2023-03-21T20:48:51.717Z,1296.6923
2023-03-21T20:49:53.126Z,1294.6923
2023-03-21T20:50:58.883Z,1297.0769
2023-03-21T20:52:49.823Z,1295.1538
2023-03-21T20:53:06.957Z,1289.3077
2023-03-21T20:53:58.941Z,1287.3846
2023-03-21T20:55:00.340Z,1293.2307
2023-03-21T20:56:01.757Z,1291.2307
2023-03-21T20:57:03.402Z,1301.3077
2023-03-21T20:58:26.761Z,1315.3846
2023-03-21T20:59:17.398Z,1656.6923
2023-03-21T21:00:07.492Z,2177.9231
2023-03-21T21:01:08.996Z,2517.0769
2023-03-21T21:02:10.362Z,2530.2307
2023-03-21T21:03:11.894Z,2379.0769
2023-03-21T21:04:15.170Z,2317.3076
2023-03-21T21:05:27.456Z,2281.6924
2023-03-21T21:06:16.231Z,2287.6924
2023-03-21T21:07:17.586Z,2299.4614
2023-03-21T21:08:19.000Z,2267.1538
2023-03-21T21:09:20.433Z,2264.3845
2023-03-21T21:10:22.368Z,2235.0769